Time;durP1;ratioP1;P1;durP2;ratioP2;P2;SDS_P1;SDS_P2;PMS_P1;PMS_P2;Temp;Humidity;BMP_temperature;BMP_pressure;BME280_temperature;BME280_humidity;BME280_pressure;Samples;Min_cycle;Max_cycle;Signal;HPM_P1;HPM_P2
2023/11/24 00:01:37;;;;;;;142.40;93.50;;;204.90;2252.80;;;;;;5069591;28;20485;-60
2023/11/24 00:04:04;;;;;;;159.23;98.85;;;204.90;2252.80;;;;;;5069007;28;20093;-60
2023/11/24 00:06:32;;;;;;;147.00;103.35;;;205.10;2252.80;;;;;;5071322;28;20162;-60
2023/11/24 00:08:58;;;;;;;145.45;99.35;;;204.90;2252.80;;;;;;5058063;28;20040;-59
2023/11/24 00:11:26;;;;;;;144.65;99.88;;;205.10;2252.80;;;;;;5076058;28;20056;-60
2023/11/24 00:13:52;;;;;;;142.23;102.10;;;180.10;2252.80;;;;;;5075681;28;20039;-60
2023/11/24 00:16:18;;;;;;;172.80;117.72;;;204.80;2252.80;;;;;;5076255;28;20016;-59
2023/11/24 00:18:45;;;;;;;160.95;108.32;;;204.80;2252.80;;;;;;5075974;28;20040;-60
2023/11/24 00:21:11;;;;;;;154.70;111.00;;;180.10;2252.80;;;;;;5075807;28;20025;-60
2023/11/24 00:23:37;;;;;;;158.65;111.78;;;179.90;2252.80;;;;;;5075886;28;20052;-60
2023/11/24 00:26:06;;;;;;;159.20;105.97;;;179.90;2252.80;;;;;;5075752;28;20031;-60
2023/11/24 00:28:39;;;;;;;157.75;104.20;;;179.70;2252.80;;;;;;5075757;28;20474;-60
2023/11/24 00:31:07;;;;;;;162.10;107.53;;;179.70;2252.80;;;;;;5076102;28;20425;-60
2023/11/24 00:33:34;;;;;;;170.70;109.07;;;179.80;2252.80;;;;;;5075624;28;20071;-60
2023/11/24 00:36:00;;;;;;;146.30;101.00;;;179.90;2252.80;;;;;;5075647;28;20103;-61
2023/11/24 00:38:27;;;;;;;166.63;107.28;;;179.90;2252.80;;;;;;5075733;28;20078;-60
2023/11/24 00:40:53;;;;;;;160.73;106.28;;;179.80;2252.80;;;;;;5075494;28;20037;-61
2023/11/24 00:43:20;;;;;;;149.30;104.80;;;179.80;2252.80;;;;;;5075658;28;20097;-60
2023/11/24 00:45:46;;;;;;;148.68;104.00;;;179.90;2252.80;;;;;;5075843;28;20024;-60
2023/11/24 00:48:12;;;;;;;162.40;109.78;;;179.80;2252.80;;;;;;5075492;28;20379;-60
2023/11/24 00:50:37;;;;;;;156.52;105.22;;;179.90;2252.80;;;;;;5075770;28;20024;-60
2023/11/24 00:53:03;;;;;;;147.75;102.68;;;179.80;2252.80;;;;;;5075291;28;20033;-59
2023/11/24 00:55:30;;;;;;;154.40;106.90;;;179.90;2252.80;;;;;;5075202;28;20025;-60
2023/11/24 00:57:59;;;;;;;163.20;113.72;;;179.80;2252.80;;;;;;5075787;28;20024;-61
2023/11/24 01:00:25;;;;;;;151.05;102.95;;;179.80;2252.80;;;;;;5070215;28;20032;-61
2023/11/24 01:02:50;;;;;;;152.65;103.18;;;179.80;2252.80;;;;;;5055312;28;20025;-60
2023/11/24 01:05:19;;;;;;;159.20;103.68;;;179.90;2252.80;;;;;;5054040;28;20037;-60
2023/11/24 01:07:46;;;;;;;159.23;108.57;;;179.90;2252.80;;;;;;5075533;28;20414;-60
2023/11/24 01:10:12;;;;;;;159.05;107.85;;;179.80;2252.80;;;;;;5066043;28;20079;-60
2023/11/24 01:12:38;;;;;;;169.52;116.32;;;179.70;2252.80;;;;;;5075583;28;20032;-60
2023/11/24 01:15:06;;;;;;;140.25;97.30;;;179.70;2252.80;;;;;;5075514;28;20025;-60
2023/11/24 01:17:32;;;;;;;156.65;111.80;;;179.70;2252.80;;;;;;5074285;28;20052;-60
2023/11/24 01:19:58;;;;;;;149.65;110.57;;;179.40;2252.80;;;;;;5071573;28;20415;-60
2023/11/24 01:22:24;;;;;;;154.38;105.20;;;179.20;2252.80;;;;;;5072093;28;20038;-61
2023/11/24 01:24:51;;;;;;;145.70;98.28;;;154.50;2252.80;;;;;;5071996;28;20035;-60
2023/11/24 01:27:18;;;;;;;145.43;102.30;;;179.20;2252.80;;;;;;5072474;28;20051;-59
2023/11/24 01:29:44;;;;;;;142.50;100.85;;;179.30;2252.80;;;;;;5072108;28;20112;-59
2023/11/24 01:32:09;;;;;;;146.77;102.20;;;179.40;2252.80;;;;;;5072139;28;20128;-60
2023/11/24 01:34:35;;;;;;;139.77;101.05;;;179.50;2252.80;;;;;;5072040;28;20095;-60
2023/11/24 01:37:02;;;;;;;150.18;109.38;;;179.70;2252.80;;;;;;5071741;28;20048;-60
2023/11/24 01:39:28;;;;;;;140.43;99.43;;;179.60;2252.80;;;;;;5071674;28;20107;-60
2023/11/24 01:41:54;;;;;;;139.05;99.70;;;179.60;2252.80;;;;;;5071733;28;20177;-61
2023/11/24 01:44:22;;;;;;;137.75;99.03;;;179.70;2252.80;;;;;;5071627;28;20073;-61
2023/11/24 01:46:48;;;;;;;121.13;85.57;;;179.60;2252.80;;;;;;5072027;28;20089;-60
2023/11/24 01:49:15;;;;;;;117.30;74.85;;;179.70;2252.80;;;;;;5071654;28;20508;-61
2023/11/24 01:51:42;;;;;;;107.50;73.03;;;179.80;2252.80;;;;;;5071512;28;20112;-60
2023/11/24 01:54:09;;;;;;;102.75;70.47;;;179.90;2252.80;;;;;;5071620;28;20032;-60
2023/11/24 01:56:35;;;;;;;96.00;66.30;;;179.90;2252.80;;;;;;5071456;28;20032;-60
2023/11/24 01:59:02;;;;;;;103.65;70.10;;;179.90;2252.80;;;;;;5070824;28;20029;-60
2023/11/24 02:01:30;;;;;;;104.15;69.53;;;180.00;2252.80;;;;;;5061624;28;20021;-61
2023/11/24 02:03:56;;;;;;;116.05;80.43;;;179.90;2252.80;;;;;;5061717;28;20064;-61
2023/11/24 02:06:21;;;;;;;116.60;80.57;;;179.80;2252.80;;;;;;5042667;28;20458;-60
2023/11/24 02:08:48;;;;;;;107.22;74.85;;;179.90;2252.80;;;;;;5062251;28;20013;-60
2023/11/24 02:11:14;;;;;;;120.22;84.80;;;180.00;2252.80;;;;;;5060645;28;20053;-60
2023/11/24 02:13:40;;;;;;;117.25;82.22;;;179.70;2252.80;;;;;;5059452;28;20495;-61
2023/11/24 02:16:06;;;;;;;111.05;80.22;;;179.90;2252.80;;;;;;5061819;28;20027;-60
2023/11/24 02:18:32;;;;;;;115.03;76.75;;;180.00;2252.80;;;;;;5059592;28;20021;-61
2023/11/24 02:21:00;;;;;;;150.63;101.28;;;179.90;2252.80;;;;;;5061304;28;20017;-60
2023/11/24 02:23:27;;;;;;;138.73;100.85;;;179.90;2252.80;;;;;;5061576;28;20032;-60
2023/11/24 02:25:52;;;;;;;144.00;94.40;;;179.90;2252.80;;;;;;5059219;28;20512;-60
2023/11/24 02:28:18;;;;;;;137.93;98.15;;;180.00;2252.80;;;;;;5061462;28;20032;-60
2023/11/24 02:30:44;;;;;;;140.57;97.68;;;180.10;2252.80;;;;;;5059427;28;20460;-59
2023/11/24 02:33:10;;;;;;;149.23;102.75;;;204.80;2252.80;;;;;;5060584;28;20064;-60
2023/11/24 02:35:39;;;;;;;126.55;89.55;;;204.80;2252.80;;;;;;5060835;28;20017;-59
2023/11/24 02:38:05;;;;;;;111.45;70.85;;;204.80;2252.80;;;;;;5059222;28;20022;-59
2023/11/24 02:40:32;;;;;;;95.88;64.28;;;204.80;2252.80;;;;;;5061033;28;20021;-60
2023/11/24 02:42:59;;;;;;;92.68;63.92;;;180.00;2252.80;;;;;;5060949;28;20029;-60
2023/11/24 02:45:24;;;;;;;83.05;60.08;;;180.00;2252.80;;;;;;5059099;28;20025;-61
2023/11/24 02:47:50;;;;;;;83.72;57.05;;;204.80;2252.80;;;;;;5060314;28;20025;-60
2023/11/24 02:50:17;;;;;;;74.85;51.40;;;180.10;2252.80;;;;;;5069193;28;20068;-60
2023/11/24 02:52:44;;;;;;;78.28;53.17;;;180.00;2252.80;;;;;;5070561;28;20037;-61
2023/11/24 02:55:11;;;;;;;74.72;52.28;;;180.10;2252.80;;;;;;5070191;28;20430;-60
2023/11/24 02:57:38;;;;;;;75.00;52.10;;;180.00;2252.80;;;;;;5070494;28;20386;-60
2023/11/24 03:00:05;;;;;;;66.18;46.80;;;179.60;2252.80;;;;;;5070392;28;20048;-65
2023/11/24 03:02:31;;;;;;;70.70;43.78;;;180.00;2252.80;;;;;;5070217;28;20035;-60
2023/11/24 03:04:57;;;;;;;61.58;42.53;;;179.70;2252.80;;;;;;5070065;28;20017;-60
2023/11/24 03:07:24;;;;;;;60.47;44.05;;;179.80;2252.80;;;;;;5070227;28;20478;-61
2023/11/24 03:09:50;;;;;;;59.95;42.05;;;179.70;2252.80;;;;;;5063503;28;20060;-61
2023/11/24 03:12:16;;;;;;;70.55;47.55;;;179.80;2252.80;;;;;;5063544;28;20494;-61
2023/11/24 03:14:43;;;;;;;63.80;45.15;;;179.70;2252.80;;;;;;5049846;28;20033;-60
2023/11/24 03:17:10;;;;;;;65.63;45.42;;;179.60;2252.80;;;;;;5050037;28;20100;-61
2023/11/24 03:19:36;;;;;;;67.55;49.42;;;179.60;2252.80;;;;;;5049973;28;20077;-60
2023/11/24 03:22:02;;;;;;;64.03;42.35;;;179.70;2252.80;;;;;;5049783;28;20025;-61
2023/11/24 03:24:27;;;;;;;63.53;45.15;;;179.60;2252.80;;;;;;5049801;28;20028;-61
2023/11/24 03:26:53;;;;;;;64.97;42.53;;;179.60;2252.80;;;;;;5049967;28;20032;-62
2023/11/24 03:29:19;;;;;;;66.25;44.67;;;179.60;2252.80;;;;;;5049815;28;20056;-61
2023/11/24 03:31:44;;;;;;;64.63;45.88;;;179.40;2252.80;;;;;;5049885;28;20025;-60
2023/11/24 03:34:10;;;;;;;63.45;43.97;;;179.40;2252.80;;;;;;5049567;28;20063;-60
2023/11/24 03:36:37;;;;;;;71.15;49.28;;;179.40;2252.80;;;;;;5049830;28;20032;-61
2023/11/24 03:39:03;;;;;;;78.88;50.55;;;179.30;2252.80;;;;;;5049441;28;20025;-60
2023/11/24 03:41:29;;;;;;;79.72;54.83;;;179.30;2252.80;;;;;;5049484;28;20017;-60
2023/11/24 03:43:54;;;;;;;74.43;48.60;;;179.30;2252.80;;;;;;5049867;28;20387;-61
2023/11/24 03:46:20;;;;;;;66.22;46.20;;;179.30;2252.80;;;;;;5049631;28;20025;-60
2023/11/24 03:48:46;;;;;;;60.53;41.10;;;179.20;2252.80;;;;;;5049709;28;20075;-59
2023/11/24 03:51:20;;;;;;;59.00;41.25;;;154.50;2252.80;;;;;;5049364;28;20021;-60
2023/11/24 03:53:46;;;;;;;55.65;36.78;;;154.50;2252.80;;;;;;5049485;28;20072;-60
2023/11/24 03:56:16;;;;;;;60.88;43.85;;;154.50;2252.80;;;;;;5049378;28;20053;-61
2023/11/24 03:58:43;;;;;;;62.58;45.40;;;154.50;2252.80;;;;;;5049401;28;20028;-60
2023/11/24 04:01:15;;;;;;;77.75;51.45;;;154.50;2252.80;;;;;;5049382;28;20045;-60
2023/11/24 04:03:46;;;;;;;75.60;51.08;;;154.50;2252.80;;;;;;5049227;28;20080;-60
2023/11/24 04:06:12;;;;;;;62.40;44.72;;;154.50;2252.80;;;;;;5048977;28;20031;-60
2023/11/24 04:08:39;;;;;;;80.38;50.22;;;154.30;2252.80;;;;;;5049170;28;20025;-60
2023/11/24 04:11:05;;;;;;;69.10;45.75;;;154.40;2252.80;;;;;;5049203;28;20065;-59
2023/11/24 04:13:31;;;;;;;92.68;62.25;;;154.30;2252.80;;;;;;5049361;28;20387;-60
2023/11/24 04:15:58;;;;;;;81.88;53.60;;;154.30;2252.80;;;;;;5055598;28;20415;-60
2023/11/24 04:18:24;;;;;;;105.55;76.85;;;154.10;2252.80;;;;;;5053590;28;20021;-61
2023/11/24 04:20:51;;;;;;;79.68;53.38;;;154.20;2252.80;;;;;;5069025;28;20421;-60
2023/11/24 04:23:18;;;;;;;70.22;47.53;;;154.10;2252.80;;;;;;5061301;28;20052;-60
2023/11/24 04:25:44;;;;;;;67.25;41.63;;;154.20;2252.80;;;;;;5049333;28;20108;-60
2023/11/24 04:28:11;;;;;;;56.78;38.80;;;154.20;2252.80;;;;;;5068521;28;20068;-60
2023/11/24 04:30:39;;;;;;;51.97;37.00;;;154.20;2252.80;;;;;;5069390;28;20028;-60
2023/11/24 04:33:06;;;;;;;84.55;60.80;;;154.20;2252.80;;;;;;5068677;28;20028;-60
2023/11/24 04:35:32;;;;;;;73.65;50.22;;;154.20;2252.80;;;;;;5048740;28;20464;-60
2023/11/24 04:37:58;;;;;;;68.00;47.20;;;154.10;2252.80;;;;;;5049403;28;20025;-61
2023/11/24 04:40:24;;;;;;;73.28;47.85;;;154.10;2252.80;;;;;;5049012;28;20025;-60
2023/11/24 04:42:52;;;;;;;77.20;51.88;;;154.10;2252.80;;;;;;5049071;28;20033;-61
2023/11/24 04:45:19;;;;;;;66.30;44.40;;;154.10;2252.80;;;;;;5046983;28;20057;-60
2023/11/24 04:47:44;;;;;;;65.80;44.95;;;154.10;2252.80;;;;;;5047620;28;20037;-61
2023/11/24 04:50:10;;;;;;;78.60;51.80;;;154.10;2252.80;;;;;;5047113;28;20060;-60
2023/11/24 04:52:36;;;;;;;83.30;58.38;;;154.10;2252.80;;;;;;5047690;28;20072;-60
2023/11/24 04:55:03;;;;;;;187.48;100.07;;;154.10;2252.80;;;;;;5050829;28;20021;-60
2023/11/24 04:57:31;;;;;;;110.60;65.72;;;154.20;2252.80;;;;;;5050667;28;20730;-60
2023/11/24 04:59:57;;;;;;;211.00;114.85;;;154.40;2252.80;;;;;;5051342;28;20388;-60
2023/11/24 05:02:23;;;;;;;161.90;92.25;;;154.30;2252.80;;;;;;5050901;28;20594;-61
2023/11/24 05:04:49;;;;;;;137.48;75.25;;;154.50;2252.80;;;;;;5050778;28;20024;-61
2023/11/24 05:07:18;;;;;;;104.03;60.65;;;179.20;2252.80;;;;;;5051503;28;20021;-60
2023/11/24 05:09:44;;;;;;;115.70;71.95;;;179.30;2252.80;;;;;;5050822;28;20159;-60
2023/11/24 05:12:10;;;;;;;120.93;70.55;;;154.50;2252.80;;;;;;5050155;28;20045;-60
2023/11/24 05:14:36;;;;;;;73.68;50.63;;;179.20;2252.80;;;;;;5051021;28;20036;-60
2023/11/24 05:17:02;;;;;;;70.00;47.22;;;154.50;2252.80;;;;;;5050755;28;20689;-60
2023/11/24 05:19:28;;;;;;;67.35;54.30;;;179.40;2252.80;;;;;;5050780;28;20025;-61
2023/11/24 05:21:54;;;;;;;50.70;33.08;;;179.30;2252.80;;;;;;5050661;28;20075;-61
2023/11/24 05:24:20;;;;;;;43.38;32.13;;;179.20;2252.80;;;;;;5050230;28;20025;-60
2023/11/24 05:26:45;;;;;;;48.22;34.40;;;179.20;2252.80;;;;;;5050829;28;20021;-60
2023/11/24 05:29:11;;;;;;;47.80;31.52;;;179.20;2252.80;;;;;;5050529;28;20581;-60
2023/11/24 05:31:37;;;;;;;49.55;34.08;;;179.30;2252.80;;;;;;5050688;28;20033;-60
2023/11/24 05:34:03;;;;;;;47.42;32.05;;;179.30;2252.80;;;;;;5050328;28;20485;-60
2023/11/24 05:36:29;;;;;;;41.47;28.10;;;179.40;2252.80;;;;;;5054768;28;20031;-61
2023/11/24 05:38:55;;;;;;;42.00;28.38;;;179.50;2252.80;;;;;;5059816;28;20107;-61
2023/11/24 05:41:21;;;;;;;62.60;43.72;;;179.70;2252.80;;;;;;5061577;28;20541;-60
2023/11/24 05:43:48;;;;;;;90.45;53.20;;;179.80;2252.80;;;;;;5059542;28;20032;-60
2023/11/24 05:46:13;;;;;;;106.55;60.63;;;179.90;2252.80;;;;;;5070102;28;20191;-60
2023/11/24 05:48:39;;;;;;;85.10;46.88;;;180.00;2252.80;;;;;;5053747;28;20044;-60
2023/11/24 05:51:05;;;;;;;61.08;37.85;;;180.10;2252.80;;;;;;5049678;28;20025;-61
2023/11/24 05:53:31;;;;;;;44.28;28.20;;;180.00;2252.80;;;;;;5049934;28;20041;-60
2023/11/24 05:55:57;;;;;;;65.20;43.65;;;180.10;2252.80;;;;;;5067621;28;20025;-59
2023/11/24 05:58:23;;;;;;;57.35;42.03;;;180.10;2252.80;;;;;;5069912;28;20078;-60
2023/11/24 06:00:49;;;;;;;47.90;31.48;;;180.10;2252.80;;;;;;5069835;28;20025;-60
2023/11/24 06:03:15;;;;;;;369.38;246.43;;;180.10;2252.80;;;;;;5059153;28;20036;-60
2023/11/24 06:05:41;;;;;;;84.30;53.45;;;180.10;2252.80;;;;;;5058611;28;20051;-60
2023/11/24 06:08:07;;;;;;;79.60;55.53;;;204.80;2252.80;;;;;;5063157;28;20052;-61
2023/11/24 06:10:33;;;;;;;57.72;41.03;;;204.90;2252.80;;;;;;5064146;28;20387;-60
2023/11/24 06:13:00;;;;;;;180.25;124.78;;;205.00;2252.80;;;;;;5055647;28;20442;-60
2023/11/24 06:15:26;;;;;;;202.82;139.02;;;180.10;2252.80;;;;;;5053457;28;20158;-60
2023/11/24 06:17:52;;;;;;;170.75;117.93;;;180.10;2252.80;;;;;;5057438;28;20131;-60
2023/11/24 06:20:17;;;;;;;176.23;118.10;;;180.00;2252.80;;;;;;5066259;28;20028;-60
2023/11/24 06:22:44;;;;;;;188.27;129.45;;;180.10;2252.80;;;;;;5069476;28;20253;-60
2023/11/24 06:25:10;;;;;;;197.70;134.02;;;204.90;2252.80;;;;;;5069191;28;20463;-60
2023/11/24 06:27:36;;;;;;;146.13;106.50;;;205.00;2252.80;;;;;;5071560;28;20021;-60
2023/11/24 06:30:05;;;;;;;150.85;103.07;;;205.10;2252.80;;;;;;5070919;28;20086;-60
2023/11/24 06:32:31;;;;;;;173.50;115.88;;;205.20;2252.80;;;;;;5070638;28;20033;-59
2023/11/24 06:34:57;;;;;;;199.10;143.27;;;205.10;2252.80;;;;;;5070716;28;20029;-59
2023/11/24 06:37:23;;;;;;;184.63;125.43;;;204.90;2252.80;;;;;;5070614;28;20051;-60
2023/11/24 06:39:49;;;;;;;199.80;132.73;;;205.00;2252.80;;;;;;5070467;28;20028;-60
2023/11/24 06:42:15;;;;;;;189.15;128.10;;;205.20;2252.80;;;;;;5070980;28;20028;-60
2023/11/24 06:44:41;;;;;;;154.13;107.90;;;205.20;2252.80;;;;;;5070518;28;20066;-60
2023/11/24 06:47:07;;;;;;;115.05;78.07;;;205.40;2252.80;;;;;;5070775;28;20103;-60
2023/11/24 06:49:33;;;;;;;84.18;59.30;;;205.30;2252.80;;;;;;5070363;28;20070;-60
2023/11/24 06:52:01;;;;;;;63.35;45.75;;;205.50;2252.80;;;;;;5070461;28;20123;-58
2023/11/24 06:54:28;;;;;;;52.60;33.22;;;205.60;2252.80;;;;;;5032794;28;20139;-60
2023/11/24 06:56:53;;;;;;;51.17;38.17;;;205.70;2252.80;;;;;;5050546;28;20025;-60
2023/11/24 06:59:19;;;;;;;44.85;31.38;;;230.40;2252.80;;;;;;5050355;28;20025;-65
2023/11/24 07:01:45;;;;;;;39.45;28.00;;;230.50;2252.80;;;;;;5050408;28;20029;-62
2023/11/24 07:04:10;;;;;;;40.72;27.95;;;230.60;2252.80;;;;;;5050063;28;20081;-66
2023/11/24 07:06:36;;;;;;;38.97;28.40;;;230.70;2252.80;;;;;;5050227;28;20167;-64
2023/11/24 07:09:03;;;;;;;39.60;28.50;;;230.80;2252.80;;;;;;5049825;28;20116;-64
2023/11/24 07:11:30;;;;;;;35.92;24.88;;;230.80;2252.80;;;;;;5049936;28;20056;-65
2023/11/24 07:13:56;;;;;;;29.15;22.95;;;231.00;2252.80;;;;;;5050090;28;20076;-65
2023/11/24 07:16:22;;;;;;;31.58;21.23;;;231.10;2252.80;;;;;;5049386;28;20476;-65
2023/11/24 07:18:48;;;;;;;63.78;47.47;;;231.30;2252.80;;;;;;5050179;28;20102;-65
2023/11/24 07:21:15;;;;;;;58.85;44.88;;;256.10;2252.80;;;;;;5049867;28;20059;-64
2023/11/24 07:23:41;;;;;;;131.63;94.43;;;256.10;2252.80;;;;;;5049728;28;20467;-64
2023/11/24 07:26:08;;;;;;;140.77;105.95;;;230.90;2252.80;;;;;;5049789;28;20386;-64
2023/11/24 07:28:38;;;;;;;128.80;89.97;;;230.70;2252.80;;;;;;5050618;28;20025;-64
2023/11/24 07:31:04;;;;;;;60.10;44.90;;;230.90;2252.80;;;;;;5050746;28;20021;-68
2023/11/24 07:33:31;;;;;;;180.45;129.48;;;230.80;2252.80;;;;;;5049676;28;20037;-66
2023/11/24 07:35:57;;;;;;;141.73;105.57;;;230.80;2252.80;;;;;;5049801;28;20039;-65
2023/11/24 07:38:25;;;;;;;108.80;79.10;;;231.00;2252.80;;;;;;5049598;28;20507;-65
2023/11/24 07:40:51;;;;;;;237.55;176.00;;;230.90;2252.80;;;;;;5049585;28;20025;-66
2023/11/24 07:43:17;;;;;;;188.85;141.13;;;231.00;2252.80;;;;;;5049653;28;20532;-65
2023/11/24 07:45:48;;;;;;;167.27;120.00;;;231.20;2252.80;;;;;;5031291;28;20028;-64
2023/11/24 07:48:15;;;;;;;89.15;60.10;;;231.20;2252.80;;;;;;5049870;28;20591;-65
2023/11/24 07:50:41;;;;;;;63.42;43.38;;;231.20;2252.80;;;;;;5049438;28;20040;-65
2023/11/24 07:53:06;;;;;;;47.63;36.60;;;256.10;2252.80;;;;;;5049405;28;20119;-66
2023/11/24 07:55:32;;;;;;;100.28;68.63;;;256.30;2252.80;;;;;;5049528;28;20029;-65
2023/11/24 07:57:58;;;;;;;110.40;78.05;;;256.50;2252.80;;;;;;5031745;28;20075;-65
2023/11/24 08:00:24;;;;;;;112.10;78.55;;;256.60;2252.80;;;;;;5049519;28;20078;-65
2023/11/24 08:02:50;;;;;;;106.78;79.50;;;256.90;2252.80;;;;;;5049310;28;20033;-65
2023/11/24 08:05:16;;;;;;;118.85;84.68;;;281.70;2278.40;;;;;;5049443;28;20052;-65
2023/11/24 08:07:44;;;;;;;104.38;80.03;;;281.70;2278.40;;;;;;5049215;28;20029;-64
2023/11/24 08:10:10;;;;;;;96.32;74.85;;;281.60;2278.40;;;;;;5048958;28;20494;-66
2023/11/24 08:12:35;;;;;;;100.28;76.75;;;256.70;2252.80;;;;;;5049548;28;20037;-65
2023/11/24 08:15:01;;;;;;;121.00;86.50;;;256.60;2252.80;;;;;;5049225;28;20425;-65
2023/11/24 08:17:28;;;;;;;98.57;70.85;;;256.60;2252.80;;;;;;5049502;28;20021;-65
2023/11/24 08:19:54;;;;;;;92.22;64.57;;;256.80;2252.80;;;;;;5049320;28;20493;-65
2023/11/24 08:22:20;;;;;;;58.17;45.78;;;256.90;2252.80;;;;;;5049091;28;20024;-65
2023/11/24 08:24:45;;;;;;;55.33;43.95;;;281.70;2278.40;;;;;;5049354;28;20036;-66
2023/11/24 08:27:11;;;;;;;124.57;94.57;;;281.80;2278.40;;;;;;5049543;28;20108;-65
2023/11/24 08:29:37;;;;;;;96.57;72.07;;;281.90;2278.40;;;;;;5053493;28;20029;-65
2023/11/24 08:32:03;;;;;;;187.23;131.30;;;282.00;2278.40;;;;;;5052959;28;20025;-63
2023/11/24 08:34:29;;;;;;;284.10;203.18;;;281.70;2278.40;;;;;;5052898;28;20025;-66
2023/11/24 08:36:55;;;;;;;338.63;263.77;;;256.80;2252.80;;;;;;5053184;28;20025;-66
2023/11/24 08:39:21;;;;;;;238.55;183.90;;;256.40;2252.80;;;;;;5052706;28;20432;-66
2023/11/24 08:41:50;;;;;;;244.82;185.02;;;256.50;2252.80;;;;;;5053255;28;20029;-64
2023/11/24 08:44:16;;;;;;;265.23;210.50;;;256.60;2252.80;;;;;;5052814;28;20025;-65
2023/11/24 08:46:43;;;;;;;238.68;189.90;;;281.70;2278.40;;;;;;5052969;28;20100;-66
2023/11/24 08:49:10;;;;;;;191.10;149.35;;;282.00;2278.40;;;;;;5052713;28;20032;-67
2023/11/24 08:51:36;;;;;;;197.02;156.35;;;282.20;2278.40;;;;;;5052868;28;20107;-65
2023/11/24 08:54:03;;;;;;;215.10;169.52;;;282.20;2278.40;;;;;;5052531;28;20075;-65
2023/11/24 08:56:29;;;;;;;215.07;164.52;;;282.20;2278.40;;;;;;5052500;28;20535;-65
2023/11/24 08:58:55;;;;;;;218.35;168.93;;;282.50;2278.40;;;;;;5052642;28;20052;-65
2023/11/24 09:01:21;;;;;;;261.05;191.55;;;307.30;2304.00;;;;;;5052546;28;20095;-66
2023/11/24 09:03:46;;;;;;;233.65;172.25;;;282.30;2278.40;;;;;;5052622;28;20033;-65
2023/11/24 09:06:14;;;;;;;231.48;175.05;;;282.00;2278.40;;;;;;5052494;28;20170;-65
2023/11/24 09:08:41;;;;;;;217.85;155.77;;;282.00;2278.40;;;;;;5052195;28;20032;-65
2023/11/24 09:11:07;;;;;;;199.45;146.48;;;282.00;2278.40;;;;;;5052325;28;20074;-65
2023/11/24 09:13:34;;;;;;;225.07;165.77;;;282.00;2278.40;;;;;;5052168;28;20044;-66
2023/11/24 09:16:02;;;;;;;272.75;189.27;;;282.00;2278.40;;;;;;5052365;28;20383;-65
2023/11/24 09:18:28;;;;;;;197.30;148.43;;;282.30;2278.40;;;;;;5052548;28;20036;-65
2023/11/24 09:20:55;;;;;;;174.45;137.65;;;282.00;2278.40;;;;;;5051942;28;20017;-65
2023/11/24 09:23:21;;;;;;;163.25;129.32;;;281.80;2278.40;;;;;;5052059;28;20083;-65
2023/11/24 09:25:48;;;;;;;200.65;137.50;;;281.80;2278.40;;;;;;5052168;28;20426;-65
2023/11/24 09:28:16;;;;;;;179.82;138.73;;;282.20;2278.40;;;;;;5052248;28;20025;-65
2023/11/24 09:30:42;;;;;;;175.63;130.60;;;282.30;2278.40;;;;;;5052043;28;20021;-66
2023/11/24 09:33:08;;;;;;;161.73;123.90;;;282.20;2278.40;;;;;;5051838;28;20044;-65
2023/11/24 09:35:34;;;;;;;150.32;115.00;;;307.30;2304.00;;;;;;5052082;28;20372;-65
2023/11/24 09:38:00;;;;;;;168.10;127.13;;;307.60;2304.00;;;;;;5051639;28;20048;-65
2023/11/24 09:40:26;;;;;;;171.40;117.95;;;307.30;2304.00;;;;;;5050936;28;20037;-66
2023/11/24 09:42:52;;;;;;;169.13;119.90;;;307.20;2304.00;;;;;;5051681;28;20029;-65
2023/11/24 09:45:22;;;;;;;154.98;116.63;;;307.30;2304.00;;;;;;5051894;28;20092;-65
2023/11/24 09:47:49;;;;;;;164.25;122.32;;;307.40;2304.00;;;;;;5051938;28;20024;-65
2023/11/24 09:50:23;;;;;;;183.80;141.05;;;307.60;2304.00;;;;;;5051653;28;20021;-65
2023/11/24 09:52:50;;;;;;;268.67;219.40;;;307.60;2304.00;;;;;;5051607;28;20044;-66
2023/11/24 09:55:17;;;;;;;271.00;224.00;;;307.70;2304.00;;;;;;5051650;28;20021;-65
2023/11/24 09:57:43;;;;;;;210.68;171.77;;;307.60;2304.00;;;;;;5051649;28;20059;-66
2023/11/24 10:00:10;;;;;;;145.02;109.22;;;307.70;2304.00;;;;;;5051539;28;20021;-66
2023/11/24 10:02:39;;;;;;;165.80;125.85;;;307.80;2304.00;;;;;;5051564;28;20021;-65
2023/11/24 10:05:06;;;;;;;168.63;129.27;;;307.80;2304.00;;;;;;5051396;28;20032;-65
2023/11/24 10:07:36;;;;;;;163.38;119.57;;;307.80;2304.00;;;;;;5051119;28;20055;-66
2023/11/24 10:10:04;;;;;;;248.55;185.23;;;307.80;2304.00;;;;;;5050907;28;20044;-64
2023/11/24 10:12:30;;;;;;;384.17;267.20;;;307.80;2304.00;;;;;;5051270;28;20087;-65
2023/11/24 10:14:56;;;;;;;266.17;214.98;;;307.90;2304.00;;;;;;5051643;28;20025;-65
2023/11/24 10:17:25;;;;;;;226.13;185.85;;;308.00;2304.00;;;;;;5051299;28;20045;-65
2023/11/24 10:19:53;;;;;;;170.52;140.75;;;308.10;2304.00;;;;;;5050845;28;20021;-65
2023/11/24 10:22:26;;;;;;;154.50;132.60;;;332.80;2329.60;;;;;;5051036;28;20017;-65
2023/11/24 10:24:51;;;;;;;142.10;107.70;;;332.80;2329.60;;;;;;5050713;28;20112;-66
2023/11/24 10:27:21;;;;;;;138.23;107.10;;;332.90;2329.60;;;;;;5051323;28;20112;-65
2023/11/24 10:29:48;;;;;;;172.50;140.02;;;333.20;2329.60;;;;;;5051160;28;20029;-65
2023/11/24 10:32:19;;;;;;;147.27;112.63;;;333.30;2329.60;;;;;;5050969;28;20025;-64
2023/11/24 10:34:48;;;;;;;89.60;67.50;;;333.60;2329.60;;;;;;5050898;28;20476;-66
2023/11/24 10:37:20;;;;;;;84.15;67.53;;;333.60;2329.60;;;;;;5050784;28;20683;-64
2023/11/24 10:39:47;;;;;;;71.50;55.17;;;333.70;2329.60;;;;;;5050747;28;20452;-66
2023/11/24 10:42:19;;;;;;;80.32;57.45;;;333.60;2329.60;;;;;;5050659;28;20383;-65
2023/11/24 10:44:49;;;;;;;87.00;66.97;;;333.40;2329.60;;;;;;5050679;28;20055;-65
2023/11/24 10:47:26;;;;;;;86.88;63.10;;;333.30;2329.60;;;;;;5050731;28;20053;-66
2023/11/24 10:50:03;;;;;;;94.43;73.22;;;333.30;2329.60;;;;;;5065373;28;20058;-65
2023/11/24 10:52:36;;;;;;;117.93;84.78;;;333.20;2329.60;;;;;;5070406;28;20036;-65
2023/11/24 10:55:13;;;;;;;126.15;93.95;;;333.10;2329.60;;;;;;5070361;28;20499;-65
2023/11/24 10:57:41;;;;;;;144.88;112.53;;;332.80;2329.60;;;;;;5051882;28;20360;-65
2023/11/24 11:00:14;;;;;;;178.80;136.82;;;307.90;2304.00;;;;;;5070378;28;20146;-65
2023/11/24 11:02:41;;;;;;;141.13;113.03;;;308.10;2304.00;;;;;;5070344;28;20037;-65
2023/11/24 11:05:30;;;;;;;157.15;117.85;;;308.10;2304.00;;;;;;5070120;28;20040;-65
2023/11/24 11:08:19;;;;;;;158.57;119.22;;;308.10;2304.00;;;;;;5070259;28;20052;-66
2023/11/24 11:11:05;;;;;;;293.77;219.30;;;307.90;2304.00;;;;;;5070001;28;20182;-65
2023/11/24 11:13:36;;;;;;;187.70;139.07;;;307.90;2304.00;;;;;;5069968;28;20048;-65
2023/11/24 11:16:08;;;;;;;282.80;210.75;;;333.00;2329.60;;;;;;5070039;28;20021;-66
2023/11/24 11:18:35;;;;;;;223.45;165.20;;;333.10;2329.60;;;;;;5069944;28;20028;-65
2023/11/24 11:21:30;;;;;;;179.15;138.45;;;333.00;2329.60;;;;;;5069664;28;20028;-65
2023/11/24 11:24:04;;;;;;;164.68;126.70;;;332.90;2329.60;;;;;;5069924;28;20024;-65
2023/11/24 11:26:48;;;;;;;522.05;303.20;;;308.10;2304.00;;;;;;5069895;28;20017;-64
2023/11/24 11:29:17;;;;;;;169.02;123.32;;;308.00;2304.00;;;;;;5069788;28;20029;-65
2023/11/24 11:31:50;;;;;;;210.80;167.13;;;308.00;2304.00;;;;;;5069672;28;20029;-65
2023/11/24 11:34:17;;;;;;;468.55;301.55;;;308.10;2304.00;;;;;;5069738;28;20037;-65
2023/11/24 11:36:53;;;;;;;522.38;359.10;;;308.00;2304.00;;;;;;5069611;28;20024;-64
2023/11/24 11:39:27;;;;;;;268.13;197.80;;;308.00;2304.00;;;;;;5069761;28;20035;-66
2023/11/24 11:41:55;;;;;;;140.40;115.63;;;308.00;2304.00;;;;;;5069564;28;20367;-65
2023/11/24 11:44:33;;;;;;;126.82;101.90;;;307.90;2304.00;;;;;;5069287;28;20161;-65
2023/11/24 11:47:26;;;;;;;292.92;200.55;;;307.80;2304.00;;;;;;5047727;28;20115;-66
2023/11/24 11:49:56;;;;;;;169.20;127.20;;;307.80;2304.00;;;;;;5069370;28;20032;-65